CST,Max TemperatureF,Mean TemperatureF,Min TemperatureF,Max Dew PointF,MeanDew PointF,Min DewpointF,Max Humidity, Mean Humidity, Min Humidity, Max Sea Level PressureIn, Mean Sea Level PressureIn, Min Sea Level PressureIn, Max VisibilityMiles, Mean VisibilityMiles, Min VisibilityMiles, Max Wind SpeedMPH, Mean Wind SpeedMPH, Max Gust SpeedMPH,PrecipitationIn, CloudCover, Events, WindDirDegrees
2014-1-1,61,45,28,39,30,23,85,61,37,30.21,30.06,29.89,10,10,10,23,8,29,0.00,3,,41
2014-1-2,39,29,19,23,14,10,69,55,40,30.51,30.39,30.15,10,10,10,23,10,30,0.00,3,,313
2014-1-3,46,32,18,18,15,11,73,52,31,30.51,30.32,30.09,10,10,10,14,7,17,0.00,0,,97
2014-1-4,52,40,28,40,31,20,76,62,47,30.07,29.91,29.80,10,10,10,21,8,26,T,6,,68
2014-1-5,44,29,14,41,20,-2,89,69,49,30.57,30.09,29.76,10,9,4,25,14,33,0.08,7,Rain-Snow,315
2014-1-6,19,14,8,6,-3,-12,76,55,33,30.75,30.65,30.59,10,10,10,21,10,26,0.00,0,,298
2014-1-7,47,29,10,17,10,3,76,50,23,30.58,30.43,30.32,10,10,10,16,5,21,0.00,0,,86
2014-1-8,33,28,22,31,27,16,92,78,63,30.37,30.31,30.25,10,5,1,15,8,18,0.20,7,Rain,74
2014-1-9,35,34,33,34,32,30,100,95,89,30.30,30.22,30.09,8,3,1,14,9,16,0.07,8,Rain,77
2014-1-10,57,46,35,52,42,33,100,90,80,30.08,29.79,29.61,10,4,0,16,8,21,0.44,7,Fog-Rain,50
2014-1-11,57,45,33,36,32,29,92,65,38,30.04,29.95,29.75,10,10,9,22,9,25,0.00,0,,262
2014-1-12,71,51,30,39,31,24,92,55,17,30.03,29.87,29.71,10,10,10,30,10,37,0.00,0,,136
2014-1-13,63,50,37,48,35,29,76,57,37,30.00,29.89,29.73,10,10,10,25,11,31,0.00,2,,263
2014-1-14,57,44,30,37,26,16,85,59,33,30.26,30.09,29.94,10,10,10,20,7,23,T,1,Rain,318
2014-1-15,46,36,26,24,19,15,69,50,31,30.34,30.22,30.03,10,10,10,18,7,23,0.00,1,,275
2014-1-16,60,45,30,31,22,13,72,46,19,30.09,30.00,29.95,10,10,10,29,9,36,0.00,1,,302
2014-1-17,45,36,27,19,11,2,58,38,18,30.28,30.22,30.09,10,10,10,25,12,32,0.00,0,,294
2014-1-18,65,45,24,25,21,16,69,45,21,30.16,30.03,29.87,10,10,10,31,11,39,0.00,0,,332
2014-1-19,60,43,26,27,24,20,70,48,25,30.25,30.13,30.00,10,10,10,16,7,22,0.00,0,,266
2014-1-20,68,49,29,32,27,22,78,51,24,30.18,29.98,29.85,10,10,10,26,7,36,0.00,0,,354
2014-1-21,49,35,21,22,9,1,50,38,25,30.45,30.32,30.18,10,10,10,26,10,35,0.00,0,,301
2014-1-22,51,36,21,21,16,11,74,49,24,30.30,30.20,30.12,10,10,10,14,4,17,0.00,0,,9
2014-1-23,36,26,16,19,2,-8,63,42,21,30.83,30.65,30.32,10,10,10,16,11,22,0.00,3,,359
2014-1-24,42,25,8,7,2,-4,73,45,16,30.81,30.50,30.13,10,10,10,16,5,20,0.00,0,,231
2014-1-25,64,44,24,31,23,6,81,54,27,30.09,30.02,29.96,10,10,10,17,5,21,0.00,0,,267
2014-1-26,73,50,27,34,29,23,85,51,17,29.94,29.80,29.65,10,10,10,15,5,20,0.00,0,,6
2014-1-27,53,38,23,26,0,-10,46,34,21,30.45,30.32,29.94,10,10,10,31,14,40,0.00,5,,3
2014-1-28,34,26,17,7,1,-6,56,38,19,30.55,30.47,30.42,10,10,10,15,7,18,T,4,,335
2014-1-29,44,29,14,13,7,3,74,46,18,30.45,30.34,30.18,10,10,10,15,4,18,0.00,0,,177
2014-1-30,51,34,17,28,21,10,75,53,31,30.17,29.99,29.87,10,10,10,28,7,35,0.00,0,,161
2014-1-31,52,45,37,45,38,29,83,73,62,29.94,29.88,29.82,10,10,9,13,8,16,0.00,7,,71